sensor_id;sensor_type;location;lat;lon;timestamp;P1;durP1;ratioP1;P2;durP2;ratioP2
68315;SDS011;55508;54.368;18.406;2023-02-27T00:02:00;3.45;;;2.75;;
68315;SDS011;55508;54.368;18.406;2023-02-27T00:04:27;7.68;;;5.10;;
68315;SDS011;55508;54.368;18.406;2023-02-27T00:06:53;9.10;;;5.25;;
68315;SDS011;55508;54.368;18.406;2023-02-27T00:09:20;5.68;;;4.95;;
68315;SDS011;55508;54.368;18.406;2023-02-27T00:11:47;6.97;;;4.93;;
68315;SDS011;55508;54.368;18.406;2023-02-27T00:14:14;5.47;;;4.15;;
68315;SDS011;55508;54.368;18.406;2023-02-27T00:16:41;3.90;;;3.03;;
68315;SDS011;55508;54.368;18.406;2023-02-27T00:19:08;7.18;;;3.15;;
68315;SDS011;55508;54.368;18.406;2023-02-27T00:21:35;3.20;;;2.90;;
68315;SDS011;55508;54.368;18.406;2023-02-27T00:24:02;3.08;;;2.60;;
68315;SDS011;55508;54.368;18.406;2023-02-27T00:26:29;4.28;;;2.75;;
68315;SDS011;55508;54.368;18.406;2023-02-27T00:28:56;5.07;;;3.05;;
68315;SDS011;55508;54.368;18.406;2023-02-27T00:31:23;5.55;;;3.13;;
68315;SDS011;55508;54.368;18.406;2023-02-27T00:33:51;3.20;;;2.78;;
68315;SDS011;55508;54.368;18.406;2023-02-27T00:36:17;4.85;;;3.05;;
68315;SDS011;55508;54.368;18.406;2023-02-27T00:38:44;4.00;;;3.13;;
68315;SDS011;55508;54.368;18.406;2023-02-27T00:41:11;4.05;;;3.60;;
68315;SDS011;55508;54.368;18.406;2023-02-27T00:43:38;1.88;;;1.67;;
68315;SDS011;55508;54.368;18.406;2023-02-27T00:46:05;1.08;;;0.80;;
68315;SDS011;55508;54.368;18.406;2023-02-27T00:48:32;1.15;;;0.70;;
68315;SDS011;55508;54.368;18.406;2023-02-27T00:51:00;0.93;;;0.47;;
68315;SDS011;55508;54.368;18.406;2023-02-27T00:53:27;1.45;;;0.70;;
68315;SDS011;55508;54.368;18.406;2023-02-27T00:55:54;1.58;;;0.77;;
68315;SDS011;55508;54.368;18.406;2023-02-27T00:58:20;0.68;;;0.68;;
68315;SDS011;55508;54.368;18.406;2023-02-27T01:00:47;2.08;;;0.68;;
68315;SDS011;55508;54.368;18.406;2023-02-27T01:03:14;1.08;;;0.95;;
68315;SDS011;55508;54.368;18.406;2023-02-27T01:05:41;1.75;;;0.85;;
68315;SDS011;55508;54.368;18.406;2023-02-27T01:08:08;1.73;;;0.95;;
68315;SDS011;55508;54.368;18.406;2023-02-27T01:10:35;1.42;;;1.20;;
68315;SDS011;55508;54.368;18.406;2023-02-27T01:13:05;3.72;;;1.35;;
68315;SDS011;55508;54.368;18.406;2023-02-27T01:15:32;3.03;;;1.52;;
68315;SDS011;55508;54.368;18.406;2023-02-27T01:17:59;7.57;;;3.00;;
68315;SDS011;55508;54.368;18.406;2023-02-27T01:20:27;4.18;;;2.33;;
68315;SDS011;55508;54.368;18.406;2023-02-27T01:22:53;4.63;;;1.33;;
68315;SDS011;55508;54.368;18.406;2023-02-27T01:25:20;5.40;;;3.50;;
68315;SDS011;55508;54.368;18.406;2023-02-27T01:27:48;4.43;;;2.92;;
68315;SDS011;55508;54.368;18.406;2023-02-27T01:30:15;6.40;;;3.40;;
68315;SDS011;55508;54.368;18.406;2023-02-27T01:32:43;4.30;;;2.00;;
68315;SDS011;55508;54.368;18.406;2023-02-27T01:35:10;4.75;;;2.42;;
68315;SDS011;55508;54.368;18.406;2023-02-27T01:37:37;4.70;;;2.17;;
68315;SDS011;55508;54.368;18.406;2023-02-27T01:40:05;2.70;;;2.10;;
68315;SDS011;55508;54.368;18.406;2023-02-27T01:42:32;3.17;;;2.33;;
68315;SDS011;55508;54.368;18.406;2023-02-27T01:45:15;5.45;;;2.25;;
68315;SDS011;55508;54.368;18.406;2023-02-27T01:48:00;3.05;;;1.92;;
68315;SDS011;55508;54.368;18.406;2023-02-27T01:50:34;1.95;;;1.67;;
68315;SDS011;55508;54.368;18.406;2023-02-27T01:53:04;2.45;;;2.08;;
68315;SDS011;55508;54.368;18.406;2023-02-27T01:55:32;4.18;;;2.13;;
68315;SDS011;55508;54.368;18.406;2023-02-27T02:00:34;2.78;;;1.83;;
68315;SDS011;55508;54.368;18.406;2023-02-27T02:05:59;3.28;;;2.03;;
68315;SDS011;55508;54.368;18.406;2023-02-27T02:08:28;3.83;;;2.80;;
68315;SDS011;55508;54.368;18.406;2023-02-27T02:10:56;4.88;;;3.30;;
68315;SDS011;55508;54.368;18.406;2023-02-27T02:13:24;4.18;;;2.85;;
68315;SDS011;55508;54.368;18.406;2023-02-27T02:15:59;3.65;;;2.30;;
68315;SDS011;55508;54.368;18.406;2023-02-27T02:19:09;5.13;;;2.33;;
68315;SDS011;55508;54.368;18.406;2023-02-27T02:22:12;7.47;;;2.63;;
68315;SDS011;55508;54.368;18.406;2023-02-27T02:43:12;2.05;;;1.58;;
68315;SDS011;55508;54.368;18.406;2023-02-27T02:45:49;3.67;;;1.90;;
68315;SDS011;55508;54.368;18.406;2023-02-27T02:48:25;3.03;;;2.00;;
68315;SDS011;55508;54.368;18.406;2023-02-27T02:51:07;4.10;;;2.55;;
68315;SDS011;55508;54.368;18.406;2023-02-27T02:53:55;3.70;;;3.25;;
68315;SDS011;55508;54.368;18.406;2023-02-27T02:56:48;5.32;;;3.45;;
68315;SDS011;55508;54.368;18.406;2023-02-27T02:59:29;5.20;;;3.58;;
68315;SDS011;55508;54.368;18.406;2023-02-27T03:02:00;4.40;;;3.05;;
68315;SDS011;55508;54.368;18.406;2023-02-27T03:07:27;7.30;;;3.60;;
68315;SDS011;55508;54.368;18.406;2023-02-27T03:10:06;8.25;;;3.80;;
68315;SDS011;55508;54.368;18.406;2023-02-27T03:12:47;6.95;;;6.20;;
68315;SDS011;55508;54.368;18.406;2023-02-27T03:15:18;10.30;;;8.13;;
68315;SDS011;55508;54.368;18.406;2023-02-27T03:17:52;11.18;;;8.30;;
68315;SDS011;55508;54.368;18.406;2023-02-27T03:20:27;13.25;;;9.30;;
68315;SDS011;55508;54.368;18.406;2023-02-27T03:22:58;11.88;;;10.07;;
68315;SDS011;55508;54.368;18.406;2023-02-27T03:25:28;17.63;;;11.43;;
68315;SDS011;55508;54.368;18.406;2023-02-27T03:27:57;13.73;;;11.40;;
68315;SDS011;55508;54.368;18.406;2023-02-27T03:30:32;17.23;;;9.40;;
68315;SDS011;55508;54.368;18.406;2023-02-27T03:33:14;11.88;;;9.30;;
68315;SDS011;55508;54.368;18.406;2023-02-27T03:38:54;21.75;;;15.93;;
68315;SDS011;55508;54.368;18.406;2023-02-27T03:41:28;35.95;;;23.50;;
68315;SDS011;55508;54.368;18.406;2023-02-27T03:44:22;23.55;;;17.13;;
68315;SDS011;55508;54.368;18.406;2023-02-27T03:46:55;15.52;;;8.35;;
68315;SDS011;55508;54.368;18.406;2023-02-27T03:49:22;11.23;;;6.55;;
68315;SDS011;55508;54.368;18.406;2023-02-27T03:51:49;8.25;;;4.00;;
68315;SDS011;55508;54.368;18.406;2023-02-27T03:54:20;5.68;;;3.17;;
68315;SDS011;55508;54.368;18.406;2023-02-27T03:57:05;6.15;;;2.85;;
68315;SDS011;55508;54.368;18.406;2023-02-27T03:59:34;4.07;;;2.92;;
68315;SDS011;55508;54.368;18.406;2023-02-27T04:02:02;6.93;;;2.60;;
68315;SDS011;55508;54.368;18.406;2023-02-27T04:04:31;5.25;;;3.05;;
68315;SDS011;55508;54.368;18.406;2023-02-27T04:07:30;7.80;;;3.20;;
68315;SDS011;55508;54.368;18.406;2023-02-27T04:24:50;7.50;;;2.15;;
68315;SDS011;55508;54.368;18.406;2023-02-27T04:27:36;5.05;;;2.60;;
68315;SDS011;55508;54.368;18.406;2023-02-27T04:30:27;10.45;;;4.60;;
68315;SDS011;55508;54.368;18.406;2023-02-27T04:35:58;3.22;;;1.98;;
68315;SDS011;55508;54.368;18.406;2023-02-27T04:38:36;2.00;;;1.33;;
68315;SDS011;55508;54.368;18.406;2023-02-27T04:41:07;1.80;;;1.55;;
68315;SDS011;55508;54.368;18.406;2023-02-27T04:43:38;4.78;;;2.05;;
68315;SDS011;55508;54.368;18.406;2023-02-27T04:46:07;3.20;;;2.13;;
68315;SDS011;55508;54.368;18.406;2023-02-27T04:48:37;1.75;;;1.42;;
68315;SDS011;55508;54.368;18.406;2023-02-27T04:51:11;15.93;;;6.47;;
68315;SDS011;55508;54.368;18.406;2023-02-27T04:56:30;13.80;;;9.00;;
68315;SDS011;55508;54.368;18.406;2023-02-27T04:59:10;2.47;;;1.40;;
68315;SDS011;55508;54.368;18.406;2023-02-27T05:01:41;1.95;;;1.80;;
68315;SDS011;55508;54.368;18.406;2023-02-27T05:04:12;3.03;;;2.72;;
68315;SDS011;55508;54.368;18.406;2023-02-27T05:06:41;5.18;;;3.35;;
68315;SDS011;55508;54.368;18.406;2023-02-27T05:12:22;7.65;;;4.20;;
68315;SDS011;55508;54.368;18.406;2023-02-27T05:14:55;7.85;;;5.63;;
68315;SDS011;55508;54.368;18.406;2023-02-27T05:17:29;5.43;;;4.20;;
68315;SDS011;55508;54.368;18.406;2023-02-27T05:19:58;7.75;;;4.35;;
68315;SDS011;55508;54.368;18.406;2023-02-27T05:22:40;3.95;;;3.53;;
68315;SDS011;55508;54.368;18.406;2023-02-27T05:25:19;5.88;;;2.90;;
68315;SDS011;55508;54.368;18.406;2023-02-27T05:27:53;4.15;;;2.65;;
68315;SDS011;55508;54.368;18.406;2023-02-27T05:30:42;5.93;;;2.70;;
68315;SDS011;55508;54.368;18.406;2023-02-27T05:33:21;6.38;;;4.85;;
68315;SDS011;55508;54.368;18.406;2023-02-27T05:38:46;5.68;;;2.72;;
68315;SDS011;55508;54.368;18.406;2023-02-27T05:41:17;6.03;;;2.60;;
68315;SDS011;55508;54.368;18.406;2023-02-27T05:43:48;4.17;;;2.67;;
68315;SDS011;55508;54.368;18.406;2023-02-27T05:46:29;4.75;;;3.50;;
68315;SDS011;55508;54.368;18.406;2023-02-27T05:49:06;4.28;;;2.80;;
68315;SDS011;55508;54.368;18.406;2023-02-27T05:51:37;2.50;;;2.28;;
68315;SDS011;55508;54.368;18.406;2023-02-27T05:54:06;6.95;;;2.03;;
68315;SDS011;55508;54.368;18.406;2023-02-27T05:56:36;4.95;;;2.00;;
68315;SDS011;55508;54.368;18.406;2023-02-27T06:01:54;1.70;;;1.45;;
68315;SDS011;55508;54.368;18.406;2023-02-27T06:04:21;2.97;;;1.80;;
68315;SDS011;55508;54.368;18.406;2023-02-27T06:06:48;5.57;;;3.30;;
68315;SDS011;55508;54.368;18.406;2023-02-27T06:09:15;3.35;;;3.05;;
68315;SDS011;55508;54.368;18.406;2023-02-27T06:11:42;6.00;;;2.95;;
68315;SDS011;55508;54.368;18.406;2023-02-27T06:14:09;3.60;;;3.25;;
68315;SDS011;55508;54.368;18.406;2023-02-27T06:16:36;5.05;;;3.22;;
68315;SDS011;55508;54.368;18.406;2023-02-27T06:19:04;7.50;;;4.30;;
68315;SDS011;55508;54.368;18.406;2023-02-27T06:21:31;11.73;;;6.00;;
68315;SDS011;55508;54.368;18.406;2023-02-27T06:23:58;6.93;;;4.43;;
68315;SDS011;55508;54.368;18.406;2023-02-27T06:26:25;6.57;;;4.35;;
68315;SDS011;55508;54.368;18.406;2023-02-27T06:28:53;6.25;;;4.60;;
68315;SDS011;55508;54.368;18.406;2023-02-27T06:31:20;5.93;;;4.03;;
68315;SDS011;55508;54.368;18.406;2023-02-27T06:33:47;6.55;;;3.38;;
68315;SDS011;55508;54.368;18.406;2023-02-27T06:36:14;4.95;;;4.50;;
68315;SDS011;55508;54.368;18.406;2023-02-27T06:38:41;5.40;;;4.28;;
68315;SDS011;55508;54.368;18.406;2023-02-27T06:41:08;5.90;;;4.47;;
68315;SDS011;55508;54.368;18.406;2023-02-27T06:43:35;8.43;;;4.65;;
68315;SDS011;55508;54.368;18.406;2023-02-27T06:46:02;11.40;;;6.35;;
68315;SDS011;55508;54.368;18.406;2023-02-27T06:48:29;12.20;;;7.85;;
68315;SDS011;55508;54.368;18.406;2023-02-27T06:50:56;19.30;;;10.13;;
68315;SDS011;55508;54.368;18.406;2023-02-27T06:53:23;11.32;;;7.72;;
68315;SDS011;55508;54.368;18.406;2023-02-27T06:55:51;11.00;;;6.50;;
68315;SDS011;55508;54.368;18.406;2023-02-27T06:58:18;8.48;;;5.07;;
68315;SDS011;55508;54.368;18.406;2023-02-27T07:00:45;7.63;;;5.15;;
68315;SDS011;55508;54.368;18.406;2023-02-27T07:03:13;11.00;;;6.25;;
68315;SDS011;55508;54.368;18.406;2023-02-27T07:05:40;14.05;;;7.15;;
68315;SDS011;55508;54.368;18.406;2023-02-27T07:08:08;11.40;;;7.43;;
68315;SDS011;55508;54.368;18.406;2023-02-27T07:10:35;11.70;;;7.75;;
68315;SDS011;55508;54.368;18.406;2023-02-27T07:13:02;9.95;;;6.47;;
68315;SDS011;55508;54.368;18.406;2023-02-27T07:15:30;15.45;;;9.85;;
68315;SDS011;55508;54.368;18.406;2023-02-27T07:17:57;21.92;;;13.40;;
68315;SDS011;55508;54.368;18.406;2023-02-27T07:20:24;29.42;;;16.42;;
68315;SDS011;55508;54.368;18.406;2023-02-27T07:22:51;12.85;;;7.70;;
68315;SDS011;55508;54.368;18.406;2023-02-27T07:25:18;10.65;;;5.28;;
68315;SDS011;55508;54.368;18.406;2023-02-27T07:27:45;7.57;;;5.03;;
68315;SDS011;55508;54.368;18.406;2023-02-27T07:30:15;13.52;;;6.25;;
68315;SDS011;55508;54.368;18.406;2023-02-27T07:32:43;11.30;;;6.53;;
68315;SDS011;55508;54.368;18.406;2023-02-27T07:35:11;9.65;;;5.95;;
68315;SDS011;55508;54.368;18.406;2023-02-27T07:37:38;9.00;;;5.55;;
68315;SDS011;55508;54.368;18.406;2023-02-27T07:40:05;8.50;;;6.28;;
68315;SDS011;55508;54.368;18.406;2023-02-27T07:42:33;7.93;;;5.88;;
68315;SDS011;55508;54.368;18.406;2023-02-27T07:45:00;6.70;;;5.50;;
68315;SDS011;55508;54.368;18.406;2023-02-27T07:47:27;7.63;;;5.25;;
68315;SDS011;55508;54.368;18.406;2023-02-27T07:49:55;10.80;;;5.30;;
68315;SDS011;55508;54.368;18.406;2023-02-27T07:52:23;12.90;;;6.10;;
68315;SDS011;55508;54.368;18.406;2023-02-27T07:54:50;8.15;;;5.28;;
68315;SDS011;55508;54.368;18.406;2023-02-27T07:57:17;8.50;;;5.30;;
68315;SDS011;55508;54.368;18.406;2023-02-27T07:59:44;7.80;;;6.28;;
68315;SDS011;55508;54.368;18.406;2023-02-27T08:02:11;9.40;;;6.60;;
68315;SDS011;55508;54.368;18.406;2023-02-27T08:04:38;13.13;;;7.53;;
68315;SDS011;55508;54.368;18.406;2023-02-27T08:07:05;9.38;;;6.07;;
68315;SDS011;55508;54.368;18.406;2023-02-27T08:09:32;8.63;;;5.50;;
68315;SDS011;55508;54.368;18.406;2023-02-27T08:11:59;10.07;;;6.30;;
68315;SDS011;55508;54.368;18.406;2023-02-27T08:14:28;8.48;;;6.38;;
68315;SDS011;55508;54.368;18.406;2023-02-27T08:16:55;11.05;;;6.15;;
68315;SDS011;55508;54.368;18.406;2023-02-27T08:19:22;9.40;;;5.68;;
68315;SDS011;55508;54.368;18.406;2023-02-27T08:21:49;8.85;;;6.18;;
68315;SDS011;55508;54.368;18.406;2023-02-27T08:24:16;7.95;;;5.45;;
68315;SDS011;55508;54.368;18.406;2023-02-27T08:26:43;7.03;;;5.88;;
68315;SDS011;55508;54.368;18.406;2023-02-27T08:29:10;6.70;;;5.60;;
68315;SDS011;55508;54.368;18.406;2023-02-27T08:31:37;6.00;;;5.15;;
68315;SDS011;55508;54.368;18.406;2023-02-27T08:34:04;7.13;;;5.78;;
68315;SDS011;55508;54.368;18.406;2023-02-27T08:39:03;8.55;;;5.60;;
68315;SDS011;55508;54.368;18.406;2023-02-27T08:41:31;15.43;;;7.07;;
68315;SDS011;55508;54.368;18.406;2023-02-27T08:43:58;17.80;;;10.40;;
68315;SDS011;55508;54.368;18.406;2023-02-27T08:46:25;26.80;;;14.30;;
68315;SDS011;55508;54.368;18.406;2023-02-27T08:48:53;33.40;;;17.65;;
68315;SDS011;55508;54.368;18.406;2023-02-27T08:51:20;30.80;;;16.92;;
68315;SDS011;55508;54.368;18.406;2023-02-27T08:53:47;27.05;;;13.93;;
68315;SDS011;55508;54.368;18.406;2023-02-27T08:56:14;20.13;;;10.60;;
68315;SDS011;55508;54.368;18.406;2023-02-27T08:58:41;20.60;;;11.65;;
68315;SDS011;55508;54.368;18.406;2023-02-27T09:01:08;23.17;;;11.52;;
68315;SDS011;55508;54.368;18.406;2023-02-27T09:03:35;18.30;;;11.07;;
68315;SDS011;55508;54.368;18.406;2023-02-27T09:06:02;22.55;;;12.85;;
68315;SDS011;55508;54.368;18.406;2023-02-27T09:08:30;22.38;;;13.80;;
68315;SDS011;55508;54.368;18.406;2023-02-27T09:10:57;37.17;;;16.38;;
68315;SDS011;55508;54.368;18.406;2023-02-27T09:13:25;32.03;;;15.73;;
68315;SDS011;55508;54.368;18.406;2023-02-27T09:15:52;19.98;;;12.38;;
68315;SDS011;55508;54.368;18.406;2023-02-27T09:18:20;28.15;;;16.98;;
68315;SDS011;55508;54.368;18.406;2023-02-27T09:20:48;17.02;;;10.35;;
68315;SDS011;55508;54.368;18.406;2023-02-27T09:23:19;23.05;;;14.35;;
68315;SDS011;55508;54.368;18.406;2023-02-27T09:25:46;21.75;;;13.80;;
68315;SDS011;55508;54.368;18.406;2023-02-27T09:28:13;36.25;;;20.33;;
68315;SDS011;55508;54.368;18.406;2023-02-27T09:30:40;62.72;;;32.55;;
68315;SDS011;55508;54.368;18.406;2023-02-27T09:33:08;14.40;;;9.38;;
68315;SDS011;55508;54.368;18.406;2023-02-27T09:35:35;12.23;;;6.80;;
68315;SDS011;55508;54.368;18.406;2023-02-27T09:38:02;9.23;;;5.75;;
68315;SDS011;55508;54.368;18.406;2023-02-27T09:40:31;7.15;;;5.25;;
68315;SDS011;55508;54.368;18.406;2023-02-27T09:43:02;4.78;;;2.83;;
68315;SDS011;55508;54.368;18.406;2023-02-27T09:45:41;4.20;;;3.80;;
68315;SDS011;55508;54.368;18.406;2023-02-27T09:48:19;3.50;;;2.88;;
68315;SDS011;55508;54.368;18.406;2023-02-27T09:51:08;3.90;;;2.90;;
68315;SDS011;55508;54.368;18.406;2023-02-27T09:53:37;3.88;;;2.33;;
68315;SDS011;55508;54.368;18.406;2023-02-27T09:56:09;4.25;;;2.75;;
68315;SDS011;55508;54.368;18.406;2023-02-27T10:01:53;4.38;;;3.25;;
68315;SDS011;55508;54.368;18.406;2023-02-27T10:04:39;4.22;;;2.72;;
68315;SDS011;55508;54.368;18.406;2023-02-27T10:07:37;6.75;;;4.18;;
68315;SDS011;55508;54.368;18.406;2023-02-27T10:13:08;27.85;;;11.13;;
68315;SDS011;55508;54.368;18.406;2023-02-27T10:16:03;3.38;;;2.38;;
68315;SDS011;55508;54.368;18.406;2023-02-27T10:18:40;9.50;;;5.25;;
68315;SDS011;55508;54.368;18.406;2023-02-27T10:21:21;3.95;;;2.30;;
68315;SDS011;55508;54.368;18.406;2023-02-27T10:26:59;1.42;;;1.00;;
68315;SDS011;55508;54.368;18.406;2023-02-27T10:29:29;3.05;;;2.47;;
68315;SDS011;55508;54.368;18.406;2023-02-27T10:32:06;2.38;;;1.25;;
68315;SDS011;55508;54.368;18.406;2023-02-27T10:34:40;2.10;;;1.25;;
68315;SDS011;55508;54.368;18.406;2023-02-27T10:37:09;2.03;;;0.90;;
68315;SDS011;55508;54.368;18.406;2023-02-27T10:39:44;1.83;;;0.85;;
68315;SDS011;55508;54.368;18.406;2023-02-27T10:42:19;1.58;;;1.02;;
68315;SDS011;55508;54.368;18.406;2023-02-27T10:44:47;3.97;;;2.05;;
68315;SDS011;55508;54.368;18.406;2023-02-27T10:47:20;1.58;;;0.73;;
68315;SDS011;55508;54.368;18.406;2023-02-27T10:49:49;1.90;;;0.85;;
68315;SDS011;55508;54.368;18.406;2023-02-27T10:52:18;1.25;;;0.80;;
68315;SDS011;55508;54.368;18.406;2023-02-27T10:54:45;1.15;;;0.80;;
68315;SDS011;55508;54.368;18.406;2023-02-27T11:00:05;4.43;;;0.75;;
68315;SDS011;55508;54.368;18.406;2023-02-27T11:02:38;1.20;;;0.52;;
68315;SDS011;55508;54.368;18.406;2023-02-27T11:05:15;2.13;;;0.60;;
68315;SDS011;55508;54.368;18.406;2023-02-27T11:07:55;1.75;;;0.77;;
68315;SDS011;55508;54.368;18.406;2023-02-27T11:10:24;1.73;;;1.30;;
68315;SDS011;55508;54.368;18.406;2023-02-27T11:12:57;2.30;;;0.70;;
68315;SDS011;55508;54.368;18.406;2023-02-27T11:15:30;2.38;;;1.48;;
68315;SDS011;55508;54.368;18.406;2023-02-27T11:20:47;1.42;;;0.70;;
68315;SDS011;55508;54.368;18.406;2023-02-27T11:23:17;1.42;;;0.60;;
68315;SDS011;55508;54.368;18.406;2023-02-27T11:25:49;0.90;;;0.60;;
68315;SDS011;55508;54.368;18.406;2023-02-27T11:28:21;0.70;;;0.60;;
68315;SDS011;55508;54.368;18.406;2023-02-27T11:30:58;1.48;;;0.63;;
68315;SDS011;55508;54.368;18.406;2023-02-27T11:33:30;1.88;;;0.70;;
68315;SDS011;55508;54.368;18.406;2023-02-27T11:38:28;1.30;;;0.65;;
68315;SDS011;55508;54.368;18.406;2023-02-27T11:40:57;1.20;;;0.73;;
68315;SDS011;55508;54.368;18.406;2023-02-27T11:43:30;1.58;;;1.00;;
68315;SDS011;55508;54.368;18.406;2023-02-27T11:46:01;1.30;;;0.85;;
68315;SDS011;55508;54.368;18.406;2023-02-27T11:48:50;1.08;;;0.82;;
68315;SDS011;55508;54.368;18.406;2023-02-27T11:51:30;2.17;;;1.63;;
68315;SDS011;55508;54.368;18.406;2023-02-27T11:54:30;2.00;;;1.35;;
68315;SDS011;55508;54.368;18.406;2023-02-27T11:57:18;2.45;;;1.73;;
68315;SDS011;55508;54.368;18.406;2023-02-27T11:59:51;1.75;;;1.65;;
68315;SDS011;55508;54.368;18.406;2023-02-27T12:05:17;1.25;;;0.82;;
68315;SDS011;55508;54.368;18.406;2023-02-27T12:07:50;2.53;;;1.20;;
68315;SDS011;55508;54.368;18.406;2023-02-27T12:10:20;1.20;;;1.10;;
68315;SDS011;55508;54.368;18.406;2023-02-27T12:15:49;3.08;;;1.42;;
68315;SDS011;55508;54.368;18.406;2023-02-27T12:18:23;5.43;;;2.10;;
68315;SDS011;55508;54.368;18.406;2023-02-27T12:20:56;1.70;;;1.50;;
68315;SDS011;55508;54.368;18.406;2023-02-27T12:23:33;3.53;;;1.17;;
68315;SDS011;55508;54.368;18.406;2023-02-27T12:26:14;6.13;;;3.05;;
68315;SDS011;55508;54.368;18.406;2023-02-27T12:28:53;3.55;;;2.22;;
68315;SDS011;55508;54.368;18.406;2023-02-27T12:31:45;2.03;;;1.52;;
68315;SDS011;55508;54.368;18.406;2023-02-27T12:34:19;1.23;;;1.00;;
68315;SDS011;55508;54.368;18.406;2023-02-27T12:37:04;2.83;;;1.70;;
68315;SDS011;55508;54.368;18.406;2023-02-27T12:42:15;2.92;;;1.75;;
68315;SDS011;55508;54.368;18.406;2023-02-27T12:50:43;2.08;;;1.08;;
68315;SDS011;55508;54.368;18.406;2023-02-27T12:53:47;1.48;;;0.90;;
68315;SDS011;55508;54.368;18.406;2023-02-27T12:56:43;0.65;;;0.60;;
68315;SDS011;55508;54.368;18.406;2023-02-27T12:59:34;1.42;;;0.90;;
68315;SDS011;55508;54.368;18.406;2023-02-27T13:02:40;2.63;;;1.30;;
68315;SDS011;55508;54.368;18.406;2023-02-27T13:05:23;2.42;;;1.70;;
68315;SDS011;55508;54.368;18.406;2023-02-27T13:08:16;1.17;;;1.00;;
68315;SDS011;55508;54.368;18.406;2023-02-27T13:10:53;2.78;;;1.08;;
68315;SDS011;55508;54.368;18.406;2023-02-27T13:13:48;1.55;;;1.13;;
68315;SDS011;55508;54.368;18.406;2023-02-27T13:16:22;5.53;;;2.17;;
68315;SDS011;55508;54.368;18.406;2023-02-27T13:19:01;2.30;;;1.50;;
68315;SDS011;55508;54.368;18.406;2023-02-27T13:21:33;2.65;;;2.13;;
68315;SDS011;55508;54.368;18.406;2023-02-27T13:26:56;2.00;;;1.30;;
68315;SDS011;55508;54.368;18.406;2023-02-27T13:29:32;2.22;;;2.03;;
68315;SDS011;55508;54.368;18.406;2023-02-27T13:38:27;2.28;;;1.17;;
68315;SDS011;55508;54.368;18.406;2023-02-27T13:46:49;2.72;;;1.70;;
68315;SDS011;55508;54.368;18.406;2023-02-27T13:49:21;4.35;;;2.00;;
68315;SDS011;55508;54.368;18.406;2023-02-27T13:51:55;4.07;;;3.67;;
68315;SDS011;55508;54.368;18.406;2023-02-27T13:54:30;5.20;;;3.88;;
68315;SDS011;55508;54.368;18.406;2023-02-27T13:57:06;5.85;;;2.25;;
68315;SDS011;55508;54.368;18.406;2023-02-27T13:59:51;7.03;;;3.88;;
68315;SDS011;55508;54.368;18.406;2023-02-27T14:02:34;7.00;;;4.63;;
68315;SDS011;55508;54.368;18.406;2023-02-27T14:05:27;1.90;;;1.30;;
68315;SDS011;55508;54.368;18.406;2023-02-27T14:10:53;4.47;;;2.30;;
68315;SDS011;55508;54.368;18.406;2023-02-27T14:19:26;2.10;;;1.48;;
68315;SDS011;55508;54.368;18.406;2023-02-27T14:27:29;1.85;;;1.33;;
68315;SDS011;55508;54.368;18.406;2023-02-27T14:30:05;2.55;;;1.55;;
68315;SDS011;55508;54.368;18.406;2023-02-27T14:32:37;1.85;;;1.40;;
68315;SDS011;55508;54.368;18.406;2023-02-27T14:35:04;2.10;;;1.80;;
68315;SDS011;55508;54.368;18.406;2023-02-27T14:37:31;3.60;;;2.85;;
68315;SDS011;55508;54.368;18.406;2023-02-27T14:40:01;5.28;;;4.55;;
68315;SDS011;55508;54.368;18.406;2023-02-27T14:42:36;7.50;;;4.35;;
68315;SDS011;55508;54.368;18.406;2023-02-27T14:45:21;6.28;;;3.88;;
68315;SDS011;55508;54.368;18.406;2023-02-27T14:47:50;4.97;;;4.05;;
68315;SDS011;55508;54.368;18.406;2023-02-27T14:50:21;9.98;;;5.90;;
68315;SDS011;55508;54.368;18.406;2023-02-27T14:52:49;10.73;;;6.70;;
68315;SDS011;55508;54.368;18.406;2023-02-27T14:55:18;12.05;;;7.15;;
68315;SDS011;55508;54.368;18.406;2023-02-27T14:57:59;14.10;;;6.60;;
68315;SDS011;55508;54.368;18.406;2023-02-27T15:00:36;8.85;;;5.82;;
68315;SDS011;55508;54.368;18.406;2023-02-27T15:05:55;7.03;;;5.03;;
68315;SDS011;55508;54.368;18.406;2023-02-27T15:08:28;4.20;;;3.63;;
68315;SDS011;55508;54.368;18.406;2023-02-27T15:10:57;8.27;;;4.03;;
68315;SDS011;55508;54.368;18.406;2023-02-27T15:13:32;4.68;;;3.70;;
68315;SDS011;55508;54.368;18.406;2023-02-27T15:18:58;3.90;;;3.33;;
68315;SDS011;55508;54.368;18.406;2023-02-27T15:21:46;4.10;;;3.35;;
68315;SDS011;55508;54.368;18.406;2023-02-27T15:24:23;9.63;;;3.80;;
68315;SDS011;55508;54.368;18.406;2023-02-27T15:26:53;3.28;;;2.38;;
68315;SDS011;55508;54.368;18.406;2023-02-27T15:29:33;3.22;;;2.13;;
68315;SDS011;55508;54.368;18.406;2023-02-27T15:32:04;5.45;;;2.00;;
68315;SDS011;55508;54.368;18.406;2023-02-27T15:34:32;4.32;;;1.67;;
68315;SDS011;55508;54.368;18.406;2023-02-27T15:37:00;1.88;;;1.42;;
68315;SDS011;55508;54.368;18.406;2023-02-27T15:39:29;1.58;;;1.48;;
68315;SDS011;55508;54.368;18.406;2023-02-27T15:42:03;2.80;;;1.23;;
68315;SDS011;55508;54.368;18.406;2023-02-27T15:44:34;1.77;;;1.13;;
68315;SDS011;55508;54.368;18.406;2023-02-27T15:47:05;1.77;;;1.67;;
68315;SDS011;55508;54.368;18.406;2023-02-27T15:49:32;2.08;;;1.85;;
68315;SDS011;55508;54.368;18.406;2023-02-27T15:52:01;2.30;;;2.00;;
68315;SDS011;55508;54.368;18.406;2023-02-27T15:54:35;2.72;;;2.53;;
68315;SDS011;55508;54.368;18.406;2023-02-27T15:57:12;6.00;;;3.83;;
68315;SDS011;55508;54.368;18.406;2023-02-27T15:59:39;6.85;;;4.28;;
68315;SDS011;55508;54.368;18.406;2023-02-27T16:02:15;3.47;;;2.58;;
68315;SDS011;55508;54.368;18.406;2023-02-27T16:04:52;2.50;;;2.30;;
68315;SDS011;55508;54.368;18.406;2023-02-27T16:07:20;3.97;;;3.53;;
68315;SDS011;55508;54.368;18.406;2023-02-27T16:09:53;5.10;;;3.65;;
68315;SDS011;55508;54.368;18.406;2023-02-27T16:12:26;4.63;;;3.45;;
68315;SDS011;55508;54.368;18.406;2023-02-27T16:15:15;5.03;;;3.55;;
68315;SDS011;55508;54.368;18.406;2023-02-27T16:18:17;5.35;;;4.05;;
68315;SDS011;55508;54.368;18.406;2023-02-27T16:20:49;6.53;;;4.13;;
68315;SDS011;55508;54.368;18.406;2023-02-27T16:23:22;3.07;;;2.77;;
68315;SDS011;55508;54.368;18.406;2023-02-27T16:26:01;5.18;;;3.90;;
68315;SDS011;55508;54.368;18.406;2023-02-27T16:28:54;3.75;;;3.30;;
68315;SDS011;55508;54.368;18.406;2023-02-27T16:31:45;4.88;;;3.92;;
68315;SDS011;55508;54.368;18.406;2023-02-27T16:37:16;6.82;;;3.05;;
68315;SDS011;55508;54.368;18.406;2023-02-27T16:39:47;4.05;;;3.13;;
68315;SDS011;55508;54.368;18.406;2023-02-27T16:42:15;4.43;;;3.10;;
68315;SDS011;55508;54.368;18.406;2023-02-27T16:44:42;4.30;;;3.45;;
68315;SDS011;55508;54.368;18.406;2023-02-27T16:47:09;8.05;;;3.20;;
68315;SDS011;55508;54.368;18.406;2023-02-27T16:49:37;3.75;;;3.45;;
68315;SDS011;55508;54.368;18.406;2023-02-27T16:52:07;4.22;;;3.83;;
68315;SDS011;55508;54.368;18.406;2023-02-27T16:54:36;8.02;;;5.35;;
68315;SDS011;55508;54.368;18.406;2023-02-27T16:57:03;7.57;;;5.97;;
68315;SDS011;55508;54.368;18.406;2023-02-27T16:59:34;10.10;;;5.55;;
68315;SDS011;55508;54.368;18.406;2023-02-27T17:04:31;6.53;;;4.75;;
68315;SDS011;55508;54.368;18.406;2023-02-27T17:06:59;7.38;;;4.82;;
68315;SDS011;55508;54.368;18.406;2023-02-27T17:09:27;7.43;;;4.55;;
68315;SDS011;55508;54.368;18.406;2023-02-27T17:11:55;10.52;;;5.38;;
68315;SDS011;55508;54.368;18.406;2023-02-27T17:14:23;7.38;;;6.35;;
68315;SDS011;55508;54.368;18.406;2023-02-27T17:16:50;9.77;;;6.40;;